Time;durP1;ratioP1;P1;durP2;ratioP2;P2;SDS_P1;SDS_P2;PMS_P1;PMS_P2;Temp;Humidity;BMP_temperature;BMP_pressure;BME280_temperature;BME280_humidity;BME280_pressure;Samples;Min_cycle;Max_cycle;Signal;HPM_P1;HPM_P2
2022/10/11 00:02:12;;;;;;;;;;;8.70;99.90;;;;;;5024445;28;19978;-89
2022/10/11 00:04:38;;;;;;;;;;;8.60;99.90;;;;;;5009557;28;20308;-88
2022/10/11 00:07:03;;;;;;;;;;;9.30;99.90;;;;;;4992371;28;19943;-89
2022/10/11 00:09:29;;;;;;;;;;;8.50;99.90;;;;;;5024296;28;19925;-89
2022/10/11 00:11:55;;;;;;;;;;;9.80;99.90;;;;;;4993514;28;19921;-88
2022/10/11 00:14:21;;;;;;;;;;;8.40;99.90;;;;;;5023443;28;19920;-88
2022/10/11 00:16:46;;;;;;;;;;;8.30;99.90;;;;;;5025867;28;19921;-88
2022/10/11 00:19:12;;;;;;;;;;;8.20;99.90;;;;;;5024126;28;19921;-89
2022/10/11 00:21:38;;;;;;;;;;;9.40;99.90;;;;;;5009035;28;19921;-88
2022/10/11 00:24:04;;;;;;;;;;;8.20;99.90;;;;;;5024784;28;19921;-88
2022/10/11 00:26:29;;;;;;;;;;;8.10;99.90;;;;;;5024897;28;19982;-88
2022/10/11 00:28:55;;;;;;;;;;;9.20;99.90;;;;;;5009543;28;20368;-88
2022/10/11 00:31:21;;;;;;;;;;;8.40;99.90;;;;;;5007460;28;19940;-87
2022/10/11 00:33:47;;;;;;;;;;;9.00;99.90;;;;;;5009325;28;19921;-88
2022/10/11 00:36:15;;;;;;;;;;;8.00;99.90;;;;;;5023285;28;19921;-88
2022/10/11 00:38:41;;;;;;;;;;;7.90;99.90;;;;;;5025476;28;19929;-87
2022/10/11 00:41:07;;;;;;;;;;;7.90;99.90;;;;;;5024417;28;20195;-88
2022/10/11 00:43:32;;;;;;;;;;;8.90;99.90;;;;;;5024312;28;19925;-88
2022/10/11 00:46:18;;;;;;;;;;;7.80;99.90;;;;;;5025807;28;19921;-88
2022/10/11 00:48:49;;;;;;;;;;;8.40;99.90;;;;;;5006680;28;20308;-88
2022/10/11 00:51:30;;;;;;;;;;;8.00;99.90;;;;;;5003088;28;19921;-88
2022/10/11 00:53:55;;;;;;;;;;;7.70;99.90;;;;;;5023694;28;20275;-89
2022/10/11 00:56:26;;;;;;;;;;;9.10;99.90;;;;;;5026064;28;19921;-88
2022/10/11 00:58:53;;;;;;;;;;;7.70;99.90;;;;;;5025362;28;19921;-88
2022/10/11 01:01:18;;;;;;;;;;;7.70;99.90;;;;;;5007500;28;20406;-89
2022/10/11 01:03:44;;;;;;;;;;;7.70;99.90;;;;;;5018175;28;20044;-93
2022/10/11 01:06:10;;;;;;;;;;;7.70;99.90;;;;;;5041380;28;19921;-91
2022/10/11 01:08:37;;;;;;;;;;;9.00;99.90;;;;;;5027472;28;19962;-90
2022/10/11 01:11:03;;;;;;;;;;;8.90;99.90;;;;;;5041685;28;19995;-90
2022/10/11 01:13:34;;;;;;;;;;;7.90;99.90;;;;;;5013904;28;19957;-89
2022/10/11 01:16:02;;;;;;;;;;;8.60;99.90;;;;;;5025932;28;19921;-90
2022/10/11 01:18:48;;;;;;;;;;;8.00;99.90;;;;;;5025785;28;19921;-89
2022/10/11 01:21:20;;;;;;;;;;;8.10;99.90;;;;;;5011593;28;19921;-88
2022/10/11 01:23:48;;;;;;;;;;;7.70;99.90;;;;;;5026854;28;20375;-89
2022/10/11 01:26:26;;;;;;;;;;;8.20;99.90;;;;;;5026333;28;19961;-89
2022/10/11 01:28:57;;;;;;;;;;;8.20;99.90;;;;;;5009103;28;20398;-90
2022/10/11 01:31:42;;;;;;;;;;;8.20;99.90;;;;;;5007530;28;20353;-89
2022/10/11 01:34:14;;;;;;;;;;;8.30;99.90;;;;;;5009325;28;19921;-89
2022/10/11 01:36:47;;;;;;;;;;;8.40;99.90;;;;;;5023226;28;19921;-90
2022/10/11 01:39:31;;;;;;;;;;;8.30;99.90;;;;;;5024978;28;19928;-89
2022/10/11 01:41:59;;;;;;;;;;;8.40;99.90;;;;;;5009831;28;19921;-88
2022/10/11 01:44:25;;;;;;;;;;;8.30;99.90;;;;;;5007238;28;19997;-89
2022/10/11 01:46:54;;;;;;;;;;;8.20;99.90;;;;;;5008694;28;20008;-89
2022/10/11 01:49:19;;;;;;;;;;;9.30;99.90;;;;;;4991861;28;20011;-89
2022/10/11 01:51:50;;;;;;;;;;;8.50;99.90;;;;;;5029241;28;20288;-88
2022/10/11 01:54:35;;;;;;;;;;;9.20;99.90;;;;;;5030755;28;19932;-88
2022/10/11 01:57:13;;;;;;;;;;;8.20;99.90;;;;;;5030109;28;19999;-88
2022/10/11 01:59:38;;;;;;;;;;;8.20;99.90;;;;;;5015876;28;19967;-88
2022/10/11 02:02:22;;;;;;;;;;;8.40;99.90;;;;;;5029867;28;19920;-89
2022/10/11 02:04:51;;;;;;;;;;;8.20;99.90;;;;;;5031833;28;19925;-90
2022/10/11 02:07:29;;;;;;;;;;;7.10;99.90;;;;;;5015774;28;20326;-89
2022/10/11 02:09:54;;;;;;;;;;;8.20;99.90;;;;;;5030751;28;19931;-89
2022/10/11 02:12:24;;;;;;;;;;;8.20;99.90;;;;;;5032574;28;20350;-89
2022/10/11 02:14:51;;;;;;;;;;;8.20;99.90;;;;;;5012578;28;19921;-89
2022/10/11 02:17:18;;;;;;;;;;;8.70;99.90;;;;;;5015242;28;19921;-89
2022/10/11 02:19:45;;;;;;;;;;;8.10;99.90;;;;;;5012537;28;19921;-89
2022/10/11 02:22:16;;;;;;;;;;;8.80;99.90;;;;;;5015136;28;19927;-89
2022/10/11 02:24:43;;;;;;;;;;;8.10;99.90;;;;;;5031345;28;20296;-90
2022/10/11 02:27:09;;;;;;;;;;;8.10;99.90;;;;;;5029731;28;20012;-90
2022/10/11 02:29:36;;;;;;;;;;;8.10;99.90;;;;;;5032169;28;19928;-89
2022/10/11 02:32:02;;;;;;;;;;;9.50;99.90;;;;;;5029582;28;20265;-88
2022/10/11 02:34:36;;;;;;;;;;;8.10;99.90;;;;;;4999832;28;20010;-88
2022/10/11 02:37:11;;;;;;;;;;;8.20;99.90;;;;;;5030280;28;20422;-90
2022/10/11 02:39:59;;;;;;;;;;;8.20;99.90;;;;;;5031032;28;19935;-89
2022/10/11 02:42:29;;;;;;;;;;;8.20;99.90;;;;;;5015521;28;19921;-89
2022/10/11 02:44:59;;;;;;;;;;;9.40;99.90;;;;;;5012120;28;20380;-89
2022/10/11 02:47:29;;;;;;;;;;;8.20;99.90;;;;;;5014822;28;20007;-89
2022/10/11 02:49:56;;;;;;;;;;;8.20;99.90;;;;;;5029108;28;19924;-89
2022/10/11 02:52:21;;;;;;;;;;;8.10;99.90;;;;;;5013580;28;19929;-89
2022/10/11 02:54:47;;;;;;;;;;;8.30;99.90;;;;;;5014430;28;20280;-89
2022/10/11 02:57:12;;;;;;;;;;;8.00;99.90;;;;;;5012997;28;19928;-88
2022/10/11 02:59:38;;;;;;;;;;;7.60;99.90;;;;;;5030707;28;19921;-89
2022/10/11 03:02:03;;;;;;;;;;;7.90;99.90;;;;;;5011603;28;19968;-89
2022/10/11 03:04:32;;;;;;;;;;;9.00;99.90;;;;;;5031238;28;20011;-86
2022/10/11 03:06:58;;;;;;;;;;;8.50;99.90;;;;;;5011887;28;20047;-86
2022/10/11 03:09:23;;;;;;;;;;;8.80;99.90;;;;;;5029777;28;19928;-87
2022/10/11 03:11:49;;;;;;;;;;;9.00;99.90;;;;;;5029837;28;19927;-87
2022/10/11 03:14:14;;;;;;;;;;;7.70;99.90;;;;;;5012749;28;19921;-87
2022/10/11 03:16:40;;;;;;;;;;;7.70;99.90;;;;;;5030464;28;20280;-87
2022/10/11 03:19:05;;;;;;;;;;;7.60;99.90;;;;;;5011120;28;19920;-86
2022/10/11 03:21:31;;;;;;;;;;;7.60;99.90;;;;;;5013859;28;19995;-86
2022/10/11 03:23:57;;;;;;;;;;;7.50;99.90;;;;;;5027930;28;20297;-87
2022/10/11 03:26:22;;;;;;;;;;;7.50;99.90;;;;;;5029534;28;19939;-87
2022/10/11 03:28:48;;;;;;;;;;;8.30;99.90;;;;;;5029288;28;20300;-89
2022/10/11 03:31:13;;;;;;;;;;;7.50;99.90;;;;;;5012661;28;19944;-87
2022/10/11 03:33:39;;;;;;;;;;;7.40;99.90;;;;;;5017256;28;19920;-87
2022/10/11 03:36:05;;;;;;;;;;;8.70;99.90;;;;;;5020257;28;20283;-86
2022/10/11 03:38:30;;;;;;;;;;;7.40;99.90;;;;;;5038630;28;19927;-88
2022/10/11 03:40:56;;;;;;;;;;;7.30;99.90;;;;;;5020231;28;20221;-87
2022/10/11 03:43:22;;;;;;;;;;;7.30;99.90;;;;;;5035612;28;19967;-87
2022/10/11 03:45:47;;;;;;;;;;;7.20;99.90;;;;;;5033027;28;19920;-87
2022/10/11 03:48:13;;;;;;;;;;;7.20;99.90;;;;;;5030063;28;20288;-87
2022/10/11 03:50:38;;;;;;;;;;;7.30;99.90;;;;;;5000555;28;19943;-87
2022/10/11 03:53:05;;;;;;;;;;;7.10;99.90;;;;;;5014996;28;20288;-86
2022/10/11 03:55:30;;;;;;;;;;;7.10;99.90;;;;;;5031484;28;19921;-88
2022/10/11 03:57:56;;;;;;;;;;;7.10;99.90;;;;;;5027053;28;19956;-88
2022/10/11 04:00:22;;;;;;;;;;;8.30;99.90;;;;;;5013396;28;19986;-89
2022/10/11 04:02:48;;;;;;;;;;;7.00;99.90;;;;;;5010933;28;19921;-88
2022/10/11 04:05:14;;;;;;;;;;;7.60;99.90;;;;;;5028849;28;20002;-86
2022/10/11 04:07:40;;;;;;;;;;;7.00;99.90;;;;;;4995767;28;20434;-86
2022/10/11 04:10:06;;;;;;;;;;;7.00;99.90;;;;;;5028067;28;19927;-86
2022/10/11 04:12:31;;;;;;;;;;;7.00;99.90;;;;;;5012678;28;19929;-86
2022/10/11 04:14:57;;;;;;;;;;;8.20;99.90;;;;;;5009866;28;20019;-87
2022/10/11 04:17:22;;;;;;;;;;;7.80;99.90;;;;;;4996150;28;19921;-86
2022/10/11 04:19:48;;;;;;;;;;;8.50;99.90;;;;;;5026577;28;20025;-87
2022/10/11 04:22:14;;;;;;;;;;;7.00;99.90;;;;;;5012008;28;19921;-87
2022/10/11 04:24:39;;;;;;;;;;;7.00;99.90;;;;;;5028304;28;20015;-87
2022/10/11 04:27:05;;;;;;;;;;;7.00;99.90;;;;;;5027419;28;19932;-86
2022/10/11 04:29:30;;;;;;;;;;;8.50;99.90;;;;;;5028958;28;19928;-86
2022/10/11 04:31:56;;;;;;;;;;;8.40;99.90;;;;;;5026192;28;19927;-86
2022/10/11 04:34:21;;;;;;;;;;;8.00;99.90;;;;;;5029216;28;19931;-87
2022/10/11 04:36:47;;;;;;;;;;;7.00;99.90;;;;;;4993919;28;20003;-86
2022/10/11 04:39:12;;;;;;;;;;;7.00;99.90;;;;;;5012444;28;20015;-87
2022/10/11 04:41:38;;;;;;;;;;;7.80;99.90;;;;;;5027532;28;19927;-86
2022/10/11 04:44:04;;;;;;;;;;;7.00;99.90;;;;;;5027507;28;20446;-86
2022/10/11 04:46:35;;;;;;;;;;;7.00;99.90;;;;;;5029218;28;19979;-88
2022/10/11 04:49:01;;;;;;;;;;;7.00;99.90;;;;;;5027254;28;19968;-90
2022/10/11 04:51:27;;;;;;;;;;;8.00;99.90;;;;;;5013462;28;19921;-89
2022/10/11 04:53:53;;;;;;;;;;;7.00;99.90;;;;;;5010461;28;20419;-87
2022/10/11 04:56:18;;;;;;;;;;;7.00;99.90;;;;;;5028940;28;19964;-87
2022/10/11 04:58:46;;;;;;;;;;;7.00;99.90;;;;;;5028034;28;20015;-90
2022/10/11 05:01:12;;;;;;;;;;;7.00;99.90;;;;;;4997812;28;19924;-88
2022/10/11 05:03:38;;;;;;;;;;;8.40;99.90;;;;;;5041142;28;19931;-92
2022/10/11 05:06:04;;;;;;;;;;;8.50;99.90;;;;;;5048572;28;19917;-93
2022/10/11 05:08:31;;;;;;;;;;;7.10;99.90;;;;;;5008268;28;19924;-93
2022/10/11 05:11:04;;;;;;;;;;;7.00;99.90;;;;;;5028299;28;19963;-90
2022/10/11 05:13:30;;;;;;;;;;;7.10;99.90;;;;;;5028489;28;19921;-89
2022/10/11 05:15:56;;;;;;;;;;;7.50;99.90;;;;;;5012111;28;19920;-86
2022/10/11 05:18:22;;;;;;;;;;;7.10;99.90;;;;;;5013348;28;19974;-87
2022/10/11 05:20:48;;;;;;;;;;;7.20;99.90;;;;;;5029742;28;19924;-87
2022/10/11 05:23:14;;;;;;;;;;;8.00;99.90;;;;;;5011519;28;20268;-86
2022/10/11 05:25:40;;;;;;;;;;;7.70;99.90;;;;;;5033667;28;19924;-86
2022/10/11 05:28:06;;;;;;;;;;;7.70;99.90;;;;;;5030108;28;20264;-83
2022/10/11 05:30:31;;;;;;;;;;;7.10;99.90;;;;;;5016544;28;20013;-86
2022/10/11 05:32:57;;;;;;;;;;;7.20;99.90;;;;;;5014324;28;20292;-84
2022/10/11 05:35:23;;;;;;;;;;;8.50;99.90;;;;;;5014156;28;19921;-86
2022/10/11 05:37:48;;;;;;;;;;;7.20;99.90;;;;;;5031736;28;19972;-86
2022/10/11 05:40:14;;;;;;;;;;;7.20;99.90;;;;;;4997779;28;19920;-86
2022/10/11 05:42:39;;;;;;;;;;;7.20;99.90;;;;;;5032082;28;20288;-86
2022/10/11 05:45:05;;;;;;;;;;;8.00;99.90;;;;;;5013134;28;19974;-86
2022/10/11 05:47:31;;;;;;;;;;;7.30;99.90;;;;;;4999342;28;19925;-87
2022/10/11 05:49:57;;;;;;;;;;;8.70;99.90;;;;;;5029877;28;19921;-86
2022/10/11 05:52:23;;;;;;;;;;;7.40;99.90;;;;;;5014258;28;19921;-86
2022/10/11 05:54:48;;;;;;;;;;;7.30;99.90;;;;;;5030929;28;20000;-85
2022/10/11 05:57:14;;;;;;;;;;;8.50;99.90;;;;;;4997934;28;19921;-86
2022/10/11 05:59:41;;;;;;;;;;;8.70;99.90;;;;;;5032412;28;20364;-86
2022/10/11 06:02:11;;;;;;;;;;;7.40;99.90;;;;;;5012642;28;19927;-86
2022/10/11 06:04:37;;;;;;;;;;;8.00;99.90;;;;;;5031506;28;19951;-86
2022/10/11 06:07:02;;;;;;;;;;;8.40;99.90;;;;;;5013769;28;19927;-87
2022/10/11 06:09:28;;;;;;;;;;;8.00;99.90;;;;;;5020410;28;19921;-86
2022/10/11 06:11:54;;;;;;;;;;;7.40;99.90;;;;;;5036674;28;19920;-86
2022/10/11 06:14:19;;;;;;;;;;;7.40;99.90;;;;;;5035760;28;19927;-87
2022/10/11 06:16:45;;;;;;;;;;;8.50;99.90;;;;;;5021202;28;19921;-86
2022/10/11 06:19:13;;;;;;;;;;;7.40;99.90;;;;;;5051436;28;19928;-85
2022/10/11 06:21:40;;;;;;;;;;;8.10;99.90;;;;;;5034834;28;19920;-88
2022/10/11 06:24:08;;;;;;;;;;;7.60;99.90;;;;;;5032742;28;19920;-85
2022/10/11 06:26:33;;;;;;;;;;;7.50;99.90;;;;;;5032368;28;19925;-88
2022/10/11 06:28:59;;;;;;;;;;;8.50;99.90;;;;;;5031632;28;19928;-86
2022/10/11 06:31:24;;;;;;;;;;;7.50;99.90;;;;;;5014208;28;19921;-86
2022/10/11 06:33:50;;;;;;;;;;;8.60;99.90;;;;;;4999357;28;20382;-86
2022/10/11 06:36:16;;;;;;;;;;;7.60;99.90;;;;;;4996316;28;19921;-86
2022/10/11 06:38:42;;;;;;;;;;;7.60;99.90;;;;;;5031435;28;19995;-86
2022/10/11 06:41:18;;;;;;;;;;;8.00;99.90;;;;;;5028721;28;19920;-86
2022/10/11 06:43:44;;;;;;;;;;;7.70;99.90;;;;;;5013833;28;19921;-85
2022/10/11 06:46:09;;;;;;;;;;;7.80;99.90;;;;;;5029930;28;19920;-85
2022/10/11 06:48:39;;;;;;;;;;;7.80;99.90;;;;;;5029224;28;19978;-85
2022/10/11 06:51:04;;;;;;;;;;;7.80;99.90;;;;;;5030836;28;19921;-86
2022/10/11 06:53:30;;;;;;;;;;;7.90;99.90;;;;;;5027920;28;19928;-85
2022/10/11 06:56:25;;;;;;;;;;;7.90;99.90;;;;;;5013990;28;20021;-86
2022/10/11 06:58:52;;;;;;;;;;;8.00;99.90;;;;;;4999812;28;19928;-85
2022/10/11 07:01:20;;;;;;;;;;;8.90;99.90;;;;;;5012293;28;19947;-86
2022/10/11 07:03:46;;;;;;;;;;;9.60;99.90;;;;;;5014927;28;20349;-86
2022/10/11 07:06:16;;;;;;;;;;;8.20;99.90;;;;;;5011595;28;19978;-87
2022/10/11 07:08:41;;;;;;;;;;;8.30;99.90;;;;;;5031091;28;19925;-87
2022/10/11 07:11:08;;;;;;;;;;;9.70;99.90;;;;;;5027733;28;20268;-85
2022/10/11 07:13:34;;;;;;;;;;;8.50;99.90;;;;;;5012827;28;19928;-83
2022/10/11 07:16:01;;;;;;;;;;;9.50;99.90;;;;;;5029038;28;19921;-83
2022/10/11 07:18:26;;;;;;;;;;;9.40;99.90;;;;;;5028668;28;19943;-84
2022/10/11 07:20:52;;;;;;;;;;;8.70;99.90;;;;;;5029974;28;20435;-84
2022/10/11 07:23:17;;;;;;;;;;;9.60;99.90;;;;;;5028058;28;19921;-83
2022/10/11 07:25:43;;;;;;;;;;;9.60;99.90;;;;;;5029889;28;20318;-84
2022/10/11 07:28:09;;;;;;;;;;;9.80;99.90;;;;;;5028074;28;20020;-84
2022/10/11 07:30:37;;;;;;;;;;;9.00;99.90;;;;;;5012804;28;20265;-83
2022/10/11 07:33:03;;;;;;;;;;;9.10;99.90;;;;;;5028580;28;19921;-84
2022/10/11 07:35:28;;;;;;;;;;;10.00;99.90;;;;;;5011588;28;20344;-84
2022/10/11 07:37:54;;;;;;;;;;;9.20;99.90;;;;;;5013329;28;19921;-86
2022/10/11 07:40:19;;;;;;;;;;;9.30;99.90;;;;;;5010938;28;19966;-85
2022/10/11 07:42:45;;;;;;;;;;;9.40;99.90;;;;;;5034349;28;19921;-86
2022/10/11 07:45:10;;;;;;;;;;;10.60;99.90;;;;;;5031593;28;19921;-85
2022/10/11 07:47:36;;;;;;;;;;;10.20;99.90;;;;;;5032120;28;20390;-84
2022/10/11 07:50:02;;;;;;;;;;;11.30;99.90;;;;;;5037158;28;19925;-87
2022/10/11 07:52:28;;;;;;;;;;;10.30;99.90;;;;;;5042360;28;19920;-85
2022/10/11 07:54:53;;;;;;;;;;;11.10;99.90;;;;;;5043959;28;19960;-88
2022/10/11 07:57:19;;;;;;;;;;;10.80;99.90;;;;;;5018951;28;19916;-84
2022/10/11 07:59:44;;;;;;;;;;;10.80;99.90;;;;;;5053726;28;19920;-84
2022/10/11 08:02:10;;;;;;;;;;;11.20;99.90;;;;;;5050808;28;19925;-84
2022/10/11 08:04:36;;;;;;;;;;;12.00;99.90;;;;;;5035729;28;19931;-85
2022/10/11 08:07:02;;;;;;;;;;;11.40;99.90;;;;;;5016310;28;19925;-84
2022/10/11 08:09:27;;;;;;;;;;;11.50;99.90;;;;;;5049877;28;19917;-83
2022/10/11 08:11:53;;;;;;;;;;;11.50;99.90;;;;;;5049181;28;19920;-84
2022/10/11 08:14:19;;;;;;;;;;;12.30;99.90;;;;;;5038426;28;20006;-84
2022/10/11 08:16:45;;;;;;;;;;;12.40;99.90;;;;;;4998357;28;19920;-84
2022/10/11 08:19:10;;;;;;;;;;;11.50;99.90;;;;;;5028992;28;20003;-84
2022/10/11 08:21:36;;;;;;;;;;;11.50;99.90;;;;;;5031331;28;19928;-84
2022/10/11 08:24:03;;;;;;;;;;;11.60;99.90;;;;;;5012432;28;19925;-84
2022/10/11 08:26:28;;;;;;;;;;;11.70;99.90;;;;;;5031654;28;19920;-84
2022/10/11 08:28:54;;;;;;;;;;;11.80;99.90;;;;;;5014557;28;20596;-83
2022/10/11 08:31:20;;;;;;;;;;;12.00;99.90;;;;;;5026484;28;19921;-84
2022/10/11 08:33:45;;;;;;;;;;;12.10;99.90;;;;;;5028668;28;19920;-84
2022/10/11 08:36:11;;;;;;;;;;;12.80;99.90;;;;;;5026272;28;20296;-83
2022/10/11 08:38:37;;;;;;;;;;;12.90;99.90;;;;;;5028683;28;20004;-84
2022/10/11 08:41:12;;;;;;;;;;;12.30;99.90;;;;;;4993261;28;20020;-84
2022/10/11 08:44:10;;;;;;;;;;;12.50;99.90;;;;;;5027898;28;19921;-84
2022/10/11 08:46:37;;;;;;;;;;;12.60;99.90;;;;;;4996625;28;19943;-83
2022/10/11 08:49:04;;;;;;;;;;;12.60;99.90;;;;;;5026045;28;20358;-84
2022/10/11 08:51:34;;;;;;;;;;;12.70;99.90;;;;;;5028642;28;20254;-84
2022/10/11 08:54:05;;;;;;;;;;;12.80;99.90;;;;;;5026290;28;20353;-85
2022/10/11 08:56:33;;;;;;;;;;;12.90;99.90;;;;;;5011109;28;19947;-84
2022/10/11 08:59:11;;;;;;;;;;;12.90;99.90;;;;;;5014527;28;19920;-85
2022/10/11 09:01:42;;;;;;;;;;;13.00;99.90;;;;;;5014019;28;20380;-85
2022/10/11 09:04:12;;;;;;;;;;;13.10;99.90;;;;;;5032893;28;19920;-85
2022/10/11 09:06:38;;;;;;;;;;;13.50;99.90;;;;;;5030966;28;19921;-85
2022/10/11 09:09:12;;;;;;;;;;;13.30;99.90;;;;;;5032371;28;19921;-85
2022/10/11 09:11:49;;;;;;;;;;;13.30;99.90;;;;;;5031614;28;19967;-84
2022/10/11 09:14:34;;;;;;;;;;;13.40;99.90;;;;;;5033733;28;20012;-84
2022/10/11 09:17:05;;;;;;;;;;;13.70;99.90;;;;;;5027045;28;19921;-85
2022/10/11 09:19:39;;;;;;;;;;;13.70;99.90;;;;;;5017610;28;19920;-85
2022/10/11 09:22:08;;;;;;;;;;;13.70;99.90;;;;;;5036178;28;20016;-85
2022/10/11 09:24:57;;;;;;;;;;;13.80;99.90;;;;;;5020625;28;20027;-85
2022/10/11 09:27:36;;;;;;;;;;;13.90;99.90;;;;;;5036556;28;19932;-85
2022/10/11 09:30:10;;;;;;;;;;;14.10;99.90;;;;;;5035951;28;19924;-85
2022/10/11 09:32:40;;;;;;;;;;;14.20;99.90;;;;;;5031037;28;20071;-85
2022/10/11 09:35:11;;;;;;;;;;;14.30;99.90;;;;;;5031218;28;20011;-85
2022/10/11 09:37:42;;;;;;;;;;;14.40;99.90;;;;;;5014849;28;19947;-86
2022/10/11 09:40:11;;;;;;;;;;;14.50;99.90;;;;;;5029502;28;19921;-85
2022/10/11 09:42:36;;;;;;;;;;;14.60;99.90;;;;;;5015425;28;20395;-85
2022/10/11 09:45:11;;;;;;;;;;;14.70;99.90;;;;;;5013057;28;19924;-86
2022/10/11 09:47:37;;;;;;;;;;;14.80;99.90;;;;;;5031439;28;19921;-85
2022/10/11 09:50:05;;;;;;;;;;;15.00;99.90;;;;;;5030511;28;20298;-86
2022/10/11 09:52:31;;;;;;;;;;;16.00;99.90;;;;;;5030131;28;19921;-86
2022/10/11 09:54:59;;;;;;;;;;;15.20;99.90;;;;;;5031482;28;19920;-86
2022/10/11 09:57:29;;;;;;;;;;;15.40;99.90;;;;;;5029649;28;19967;-86
2022/10/11 10:00:10;;;;;;;;;;;15.50;99.90;;;;;;5015254;28;19921;-85
2022/10/11 10:02:39;;;;;;;;;;;15.60;99.90;;;;;;5029646;28;20368;-86
2022/10/11 10:05:07;;;;;;;;;;;15.70;99.90;;;;;;5030466;28;19936;-85
2022/10/11 10:07:34;;;;;;;;;;;15.70;99.90;;;;;;5030851;28;19924;-85
2022/10/11 10:10:18;;;;;;;;;;;15.60;99.90;;;;;;5012031;28;19967;-86
2022/10/11 10:12:51;;;;;;;;;;;15.50;99.90;;;;;;5014404;28;20011;-86
2022/10/11 10:15:18;;;;;;;;;;;16.60;99.90;;;;;;5029762;28;20280;-85
2022/10/11 10:17:50;;;;;;;;;;;15.50;99.90;;;;;;5030819;28;20070;-86
2022/10/11 10:20:23;;;;;;;;;;;15.70;99.90;;;;;;5016219;28;19921;-93
2022/10/11 10:22:50;;;;;;;;;;;15.80;99.90;;;;;;5032357;28;19921;-90
2022/10/11 10:25:21;;;;;;;;;;;15.90;99.90;;;;;;5015540;28;19921;-89
2022/10/11 10:28:15;;;;;;;;;;;16.00;99.90;;;;;;5012860;28;20015;-89
2022/10/11 10:30:48;;;;;;;;;;;15.80;99.90;;;;;;5015102;28;20015;-90
2022/10/11 10:33:15;;;;;;;;;;;15.70;99.90;;;;;;5014225;28;19928;-89
2022/10/11 10:35:44;;;;;;;;;;;15.60;99.90;;;;;;5013105;28;20375;-89
2022/10/11 10:38:12;;;;;;;;;;;15.60;99.90;;;;;;5031584;28;19920;-89
2022/10/11 10:40:43;;;;;;;;;;;15.70;99.90;;;;;;5012369;28;19921;-88
2022/10/11 10:43:16;;;;;;;;;;;15.70;99.90;;;;;;5014957;28;19979;-89
2022/10/11 10:45:51;;;;;;;;;;;15.80;99.90;;;;;;5012852;28;19925;-88
2022/10/11 10:48:24;;;;;;;;;;;16.00;99.90;;;;;;5012621;28;19920;-88
2022/10/11 10:51:22;;;;;;;;;;;16.10;99.90;;;;;;5014355;28;19967;-88
2022/10/11 10:53:57;;;;;;;;;;;16.30;99.90;;;;;;4979627;28;20257;-88
2022/10/11 10:56:25;;;;;;;;;;;16.40;99.90;;;;;;5030111;28;19966;-88
2022/10/11 10:58:51;;;;;;;;;;;16.60;99.90;;;;;;5013920;28;19927;-87
2022/10/11 11:01:25;;;;;;;;;;;16.90;99.90;;;;;;5029764;28;19920;-87
2022/10/11 11:03:54;;;;;;;;;;;17.10;99.90;;;;;;5014424;28;19921;-87
2022/10/11 11:06:32;;;;;;;;;;;17.10;99.90;;;;;;5012094;28;20019;-87
2022/10/11 11:09:16;;;;;;;;;;;17.00;99.90;;;;;;5013431;28;19943;-87
2022/10/11 11:11:42;;;;;;;;;;;16.80;99.90;;;;;;5013001;28;19971;-87
2022/10/11 11:14:11;;;;;;;;;;;16.60;99.90;;;;;;5012452;28;19924;-88
2022/10/11 11:16:55;;;;;;;;;;;16.30;99.90;;;;;;5030233;28;19927;-87
2022/10/11 11:19:21;;;;;;;;;;;16.10;99.90;;;;;;5028319;28;19967;-88
2022/10/11 11:21:50;;;;;;;;;;;15.80;99.90;;;;;;5012581;28;19921;-87
2022/10/11 11:24:16;;;;;;;;;;;15.60;99.90;;;;;;5029221;28;20261;-87
2022/10/11 11:27:02;;;;;;;;;;;15.50;99.90;;;;;;5012163;28;19931;-87
2022/10/11 11:29:42;;;;;;;;;;;15.40;99.90;;;;;;5029213;28;19928;-87
2022/10/11 11:32:14;;;;;;;;;;;15.30;99.90;;;;;;5028412;28;20339;-87
2022/10/11 11:34:42;;;;;;;;;;;15.20;99.90;;;;;;5013342;28;20311;-88
2022/10/11 11:37:13;;;;;;;;;;;15.20;99.90;;;;;;5011730;28;19974;-88
2022/10/11 11:39:42;;;;;;;;;;;15.20;99.90;;;;;;5011913;28;20025;-87
2022/10/11 11:42:17;;;;;;;;;;;15.20;99.90;;;;;;5013244;28;19921;-87
2022/10/11 11:44:44;;;;;;;;;;;15.20;99.90;;;;;;5027345;28;19924;-87
2022/10/11 11:47:16;;;;;;;;;;;15.30;99.90;;;;;;5029205;28;20031;-87
2022/10/11 11:49:47;;;;;;;;;;;15.30;99.90;;;;;;5010888;28;19924;-87
2022/10/11 11:52:18;;;;;;;;;;;15.40;99.90;;;;;;5012254;28;19955;-87
2022/10/11 11:54:53;;;;;;;;;;;15.60;99.90;;;;;;5012868;28;20102;-87
2022/10/11 11:57:46;;;;;;;;;;;15.40;99.90;;;;;;5011010;28;19920;-87
2022/10/11 12:00:14;;;;;;;;;;;15.40;99.90;;;;;;4990253;28;19920;-87
2022/10/11 12:02:40;;;;;;;;;;;15.40;99.90;;;;;;5010847;28;20395;-87
2022/10/11 12:05:06;;;;;;;;;;;16.10;99.90;;;;;;5028971;28;19921;-88
2022/10/11 12:07:45;;;;;;;;;;;15.40;99.90;;;;;;4996009;28;19924;-87
2022/10/11 12:10:17;;;;;;;;;;;15.40;99.90;;;;;;5010571;28;19947;-87
2022/10/11 12:12:43;;;;;;;;;;;15.30;99.90;;;;;;5028849;28;19928;-87
2022/10/11 12:15:09;;;;;;;;;;;15.20;99.90;;;;;;5010753;28;20331;-87
2022/10/11 12:17:53;;;;;;;;;;;15.10;99.90;;;;;;5012561;28;19964;-89
2022/10/11 12:20:24;;;;;;;;;;;15.10;99.90;;;;;;5011422;28;20327;-87
2022/10/11 12:22:53;;;;;;;;;;;15.00;99.90;;;;;;5010173;28;19921;-87
2022/10/11 12:25:21;;;;;;;;;;;15.00;99.90;;;;;;5028445;28;19920;-87
2022/10/11 12:27:48;;;;;;;;;;;15.00;99.90;;;;;;5010341;28;19921;-86
2022/10/11 12:30:33;;;;;;;;;;;15.10;99.90;;;;;;5012473;28;19920;-87
2022/10/11 12:33:11;;;;;;;;;;;15.10;99.90;;;;;;5010670;28;19957;-87
2022/10/11 12:35:41;;;;;;;;;;;15.40;99.90;;;;;;5026703;28;19925;-86
2022/10/11 12:38:17;;;;;;;;;;;15.70;99.90;;;;;;4996630;28;20004;-87
2022/10/11 12:40:45;;;;;;;;;;;15.90;99.90;;;;;;5010472;28;19924;-87
2022/10/11 12:43:14;;;;;;;;;;;16.20;99.90;;;;;;4997566;28;19921;-86
2022/10/11 12:45:46;;;;;;;;;;;16.40;99.90;;;;;;5028585;28;20014;-85
2022/10/11 12:48:24;;;;;;;;;;;16.50;99.90;;;;;;4999388;28;19925;-87
2022/10/11 12:51:09;;;;;;;;;;;16.70;99.90;;;;;;5018410;28;19944;-87
2022/10/11 12:53:34;;;;;;;;;;;16.80;99.90;;;;;;5035103;28;19921;-90
2022/10/11 12:56:13;;;;;;;;;;;16.60;99.90;;;;;;5034779;28;20032;-89
2022/10/11 12:58:45;;;;;;;;;;;16.70;99.90;;;;;;5013706;28;19921;-89
2022/10/11 13:01:21;;;;;;;;;;;16.40;99.90;;;;;;4996926;28;19921;-89
2022/10/11 13:03:49;;;;;;;;;;;16.20;99.90;;;;;;5031085;28;19920;-89
2022/10/11 13:06:19;;;;;;;;;;;16.10;99.90;;;;;;5011959;28;20003;-89
2022/10/11 13:08:52;;;;;;;;;;;15.90;99.90;;;;;;5013000;28;19990;-88
2022/10/11 13:11:22;;;;;;;;;;;15.90;99.90;;;;;;5027707;28;19999;-89
2022/10/11 13:13:54;;;;;;;;;;;15.90;99.90;;;;;;5012132;28;19921;-88
2022/10/11 13:16:21;;;;;;;;;;;15.80;99.90;;;;;;5013363;28;20011;-89
2022/10/11 13:18:48;;;;;;;;;;;15.80;99.90;;;;;;5011235;28;20004;-90
2022/10/11 13:21:15;;;;;;;;;;;16.10;99.90;;;;;;5013349;28;19928;-89
2022/10/11 13:23:41;;;;;;;;;;;16.40;99.90;;;;;;5012393;28;20398;-88
2022/10/11 13:26:06;;;;;;;;;;;16.50;99.90;;;;;;5014795;28;20372;-90
2022/10/11 13:28:33;;;;;;;;;;;16.70;99.90;;;;;;5016317;28;20236;-88
2022/10/11 13:30:58;;;;;;;;;;;16.80;99.90;;;;;;5014939;28;20912;-90
2022/10/11 13:33:30;;;;;;;;;;;16.70;99.90;;;;;;4998956;28;19971;-90
2022/10/11 13:35:57;;;;;;;;;;;16.90;99.90;;;;;;5018739;28;20349;-91
2022/10/11 13:38:26;;;;;;;;;;;16.70;99.90;;;;;;5024480;28;19925;-92
2022/10/11 13:40:51;;;;;;;;;;;16.50;99.90;;;;;;5018089;28;19984;-90
2022/10/11 13:43:35;;;;;;;;;;;16.40;99.90;;;;;;5024570;28;19928;-90
2022/10/11 13:46:03;;;;;;;;;;;16.20;99.90;;;;;;5039764;28;20355;-90
2022/10/11 13:48:29;;;;;;;;;;;16.00;99.90;;;;;;5007131;28;19939;-90
2022/10/11 13:51:15;;;;;;;;;;;15.90;99.90;;;;;;5005934;28;19928;-90
2022/10/11 13:53:58;;;;;;;;;;;15.80;99.90;;;;;;5021347;28;19921;-91
2022/10/11 13:56:23;;;;;;;;;;;15.70;99.90;;;;;;5024724;28;19921;-90
2022/10/11 13:58:51;;;;;;;;;;;15.60;99.90;;;;;;5040861;28;19928;-90
2022/10/11 14:01:17;;;;;;;;;;;15.70;99.90;;;;;;5023848;28;19952;-90
2022/10/11 14:03:45;;;;;;;;;;;15.80;99.90;;;;;;5023903;28;20043;-90
2022/10/11 14:06:10;;;;;;;;;;;15.90;99.90;;;;;;5023629;28;19952;-90
2022/10/11 14:08:42;;;;;;;;;;;16.00;99.90;;;;;;5026118;28;19921;-91
2022/10/11 14:11:08;;;;;;;;;;;16.00;99.90;;;;;;5025526;28;19921;-92
2022/10/11 14:13:44;;;;;;;;;;;16.20;99.90;;;;;;5024083;28;19921;-92
2022/10/11 14:16:13;;;;;;;;;;;16.40;99.90;;;;;;5017065;28;19941;-91
2022/10/11 14:18:41;;;;;;;;;;;16.50;99.90;;;;;;5015140;28;19929;-88
2022/10/11 14:21:16;;;;;;;;;;;16.50;99.90;;;;;;5017200;28;19925;-91
2022/10/11 14:23:42;;;;;;;;;;;16.50;99.90;;;;;;5014270;28;19924;-90
2022/10/11 14:26:08;;;;;;;;;;;17.10;99.90;;;;;;5000030;28;19927;-90
2022/10/11 14:28:34;;;;;;;;;;;16.40;99.90;;;;;;4998366;28;19943;-89
2022/10/11 14:30:59;;;;;;;;;;;16.30;99.90;;;;;;5015225;28;19921;-89
2022/10/11 14:33:25;;;;;;;;;;;16.10;99.90;;;;;;4998425;28;19921;-89
2022/10/11 14:35:51;;;;;;;;;;;16.00;99.90;;;;;;5013115;28;19956;-90